首页
METAR-TAF:

METAR-TAF

机场 :

格拉斯哥普雷斯特威克机场

格拉斯哥普雷斯蒂克国际机场, 苏格兰

纬度: 55-30N, 经度: 004-35W, 海拔: 20米

当前天气观测

该预报发布于37分钟前的07:20 UTC
风速4节,风向东转东北,在北转东北之间变化
温度 14°C
湿度 88%
气压 1018 hPa
能见度10公里或以上
少量云层高于1000英尺
散云层高于4500英尺

METAR: EGPK 150720Z 07004KT 030V100 9999 FEW010 SCT045 14/12 Q1018

时间: 08:57 (07:57 UTC)

预报

该预报发布于2小时和58分钟前的04:59 UTC
预报有效从15日的 06点(UTC)到 16日的 06点(UTC)
风速6节,风向东北
能见度10公里或以上
少量云层高于4000英尺
短暂存在
从 15日的 06点(UTC)到 15日的 09点(UTC)
能見度: 4000
多云层高于400英尺
轻雾
几率 30% :
短暂存在
从 16日的 03点(UTC)到 16日的 06点(UTC)
多云层高于700英尺

TAF: EGPK 150459Z 1506/1606 05006KT 9999 FEW040 TEMPO 1506/1509 4000 BR BKN004 PROB30 TEMPO 1603/1606 BKN007

超过4000个机场的气象观测和天气预报(METAR&TAF报告)。

可查询的气象台以黄色和红色小点在地图上表示。

将鼠标移到小点上方,可查看气象台名称。

然后点击查看天气观测和预报。

如需切换地图:点击带黑十字的绿色按钮放大地图;点击带横线的绿色按钮缩小地图;或者点击绿色箭头查看邻近地区的地图。


METAR-TAF: